Time,TemperatureF,DewpointF,PressureIn,WindDirection,WindDirectionDegrees,WindSpeedMPH,WindSpeedGustMPH,Humidity,HourlyPrecipIn,Conditions,Clouds,dailyrainin,SoftwareType,DateUTC
2013-03-24 00:27:00,52.7,39.7,29.97,NNE,23,0.0,0.0,61,0.00,,SKC,0.00,WUHU21623XXSP,2013-03-23 22:27:00,
2013-03-24 01:27:00,52.2,40.5,29.98,North,0,0.0,0.0,64,0.00,,SKC,0.00,WUHU21623XXSP,2013-03-23 23:27:00,
2013-03-24 02:27:00,51.3,40.4,29.98,NE,45,0.0,0.0,66,0.00,,SKC,0.00,WUHU21623XXSP,2013-03-24 00:27:00,
2013-03-24 03:27:00,50.7,41.4,29.97,North,0,0.0,0.0,70,0.00,,SKC,0.00,WUHU21623XXSP,2013-03-24 01:27:00,
2013-03-24 04:27:00,50.2,40.9,29.96,NNE,23,3.0,3.0,70,0.00,,SKC,0.00,WUHU21623XXSP,2013-03-24 02:27:00,
2013-03-24 05:27:00,48.7,40.5,29.96,North,0,0.0,0.0,73,0.00,,SKC,0.00,WUHU21623XXSP,2013-03-24 03:27:00,
2013-03-24 06:27:00,49.5,40.9,29.96,North,0,0.0,0.0,72,0.00,,SKC,0.00,WUHU21623XXSP,2013-03-24 04:27:00,
2013-03-24 07:27:00,50.7,41.7,29.99,NE,45,1.4,1.4,71,0.00,,SKC,0.00,WUHU21623XXSP,2013-03-24 05:27:00,
2013-03-24 07:41:00,51.6,41.9,30.00,NNE,22,1.4,1.4,69,0.00,,SKC,0.00,WUHU21623XXSP,2013-03-24 05:41:00,
2013-03-24 07:46:00,52.2,42.1,30.00,NE,45,0.0,3.7,68,0.00,,FEW,0.00,WUHU21623XXSP,2013-03-24 05:46:00,
2013-03-24 07:52:00,52.7,42.6,30.00,North,0,4.4,5.6,68,0.00,,FEW,0.00,WUHU21623XXSP,2013-03-24 05:52:00,
2013-03-24 07:57:00,53.1,42.2,30.00,North,0,0.0,5.6,66,0.00,,FEW,0.00,WUHU21623XXSP,2013-03-24 05:57:00,
2013-03-24 08:02:00,53.6,42.6,30.00,North,0,0.0,4.9,66,0.00,,FEW,0.00,WUHU21623XXSP,2013-03-24 06:02:00,
2013-03-24 08:07:00,54.1,43.1,30.00,NNE,22,0.0,3.4,66,0.00,,FEW,0.00,WUHU21623XXSP,2013-03-24 06:07:00,
2013-03-24 08:12:00,55.0,43.6,30.00,North,0,0.0,3.4,65,0.00,,FEW,0.00,WUHU21623XXSP,2013-03-24 06:12:00,
2013-03-24 08:17:00,55.2,43.4,30.00,North,0,1.8,4.2,64,0.00,,FEW,0.00,WUHU21623XXSP,2013-03-24 06:17:00,
2013-03-24 08:22:00,55.8,43.5,30.00,NNW,337,1.4,4.9,63,0.00,,FEW,0.00,WUHU21623XXSP,2013-03-24 06:22:00,
2013-03-24 08:27:00,56.3,43.6,30.00,ESE,112,0.0,4.9,62,0.00,,FEW,0.00,WUHU21623XXSP,2013-03-24 06:27:00,
2013-03-24 08:32:00,56.8,44.0,30.00,NNE,22,2.4,2.4,62,0.00,,FEW,0.00,WUHU21623XXSP,2013-03-24 06:32:00,
2013-03-24 08:37:00,56.8,43.6,30.00,NNE,22,0.0,2.4,61,0.00,,FEW,0.00,WUHU21623XXSP,2013-03-24 06:37:00,
2013-03-24 08:42:00,57.7,44.5,30.00,NE,45,4.0,4.0,61,0.00,,FEW,0.00,WUHU21623XXSP,2013-03-24 06:42:00,
2013-03-24 08:47:00,57.6,43.9,30.00,North,0,0.0,4.0,60,0.00,,FEW,0.00,WUHU21623XXSP,2013-03-24 06:47:00,
2013-03-24 08:52:00,57.7,44.0,30.00,NNE,22,0.0,3.2,60,0.00,,FEW,0.00,WUHU21623XXSP,2013-03-24 06:52:00,
2013-03-24 08:57:00,58.5,44.8,29.99,NNW,337,0.0,3.2,60,0.00,,FEW,0.00,WUHU21623XXSP,2013-03-24 06:57:00,
2013-03-24 09:02:00,59.2,45.0,30.00,NE,45,0.0,1.4,59,0.00,,FEW,0.00,WUHU21623XXSP,2013-03-24 07:02:00,
2013-03-24 09:07:00,59.7,45.5,30.00,ENE,67,0.0,1.0,59,0.00,,FEW,0.00,WUHU21623XXSP,2013-03-24 07:07:00,
2013-03-24 09:12:00,59.9,45.2,30.00,SSE,157,0.0,1.0,58,0.00,,FEW,0.00,WUHU21623XXSP,2013-03-24 07:12:00,
2013-03-24 09:17:00,59.9,44.3,30.00,SE,135,0.0,1.8,56,0.00,,FEW,0.00,WUHU21623XXSP,2013-03-24 07:17:00,
2013-03-24 09:22:00,60.4,44.2,30.01,North,0,0.0,1.8,55,0.00,,FEW,0.00,WUHU21623XXSP,2013-03-24 07:22:00,
2013-03-24 09:27:00,60.6,44.4,30.01,SSW,202,2.8,4.7,55,0.00,,FEW,0.00,WUHU21623XXSP,2013-03-24 07:27:00,
2013-03-24 09:34:00,61.0,44.8,30.01,North,0,0.0,4.7,55,0.00,,FEW,0.00,WUHU21623XXSP,2013-03-24 07:34:00,
2013-03-24 09:39:00,60.4,43.7,30.01,North,0,0.0,4.2,54,0.00,,FEW,0.00,WUHU21623XXSP,2013-03-24 07:39:00,
2013-03-24 09:44:00,60.8,44.1,30.01,West,270,0.0,4.2,54,0.00,,FEW,0.00,WUHU21623XXSP,2013-03-24 07:44:00,
2013-03-24 09:49:00,61.0,44.3,30.01,NW,315,0.0,2.8,54,0.00,,FEW,0.00,WUHU21623XXSP,2013-03-24 07:49:00,
2013-03-24 09:54:00,61.2,44.5,30.01,SSE,157,0.0,2.8,54,0.00,,FEW,0.00,WUHU21623XXSP,2013-03-24 07:54:00,
2013-03-24 09:59:00,61.3,45.1,30.00,North,0,0.0,5.2,55,0.00,,FEW,0.00,WUHU21623XXSP,2013-03-24 07:59:00,
2013-03-24 10:04:00,62.1,45.8,30.01,South,180,0.0,5.2,55,0.00,,FEW,0.00,WUHU21623XXSP,2013-03-24 08:04:00,
2013-03-24 10:09:00,61.7,45.5,30.01,SSW,202,0.0,4.0,55,0.00,,FEW,0.00,WUHU21623XXSP,2013-03-24 08:09:00,
2013-03-24 10:14:00,61.9,46.1,30.01,SW,225,0.0,4.9,56,0.00,,FEW,0.00,WUHU21623XXSP,2013-03-24 08:14:00,
2013-03-24 10:19:00,62.4,46.6,30.01,WNW,292,0.0,4.9,56,0.00,,FEW,0.00,WUHU21623XXSP,2013-03-24 08:19:00,
2013-03-24 10:24:00,62.4,46.6,30.01,NNW,337,0.0,4.0,56,0.00,,FEW,0.00,WUHU21623XXSP,2013-03-24 08:24:00,
2013-03-24 10:29:00,63.0,47.6,30.01,SW,225,2.4,6.2,57,0.00,,FEW,0.00,WUHU21623XXSP,2013-03-24 08:29:00,
2013-03-24 10:34:00,62.4,47.1,30.01,SW,225,0.0,9.6,57,0.00,,FEW,0.00,WUHU21623XXSP,2013-03-24 08:34:00,
2013-03-24 10:39:00,62.8,48.4,30.01,NW,315,0.0,11.6,59,0.00,,FEW,0.00,WUHU21623XXSP,2013-03-24 08:39:00,
2013-03-24 10:44:00,62.8,47.9,30.00,SW,225,7.2,11.6,58,0.00,,FEW,0.00,WUHU21623XXSP,2013-03-24 08:44:00,
2013-03-24 10:49:00,62.2,47.4,30.00,SSE,157,4.9,10.6,58,0.00,,FEW,0.00,WUHU21623XXSP,2013-03-24 08:49:00,
2013-03-24 10:54:00,63.0,49.0,30.00,NW,315,2.8,10.6,60,0.00,,FEW,0.00,WUHU21623XXSP,2013-03-24 08:54:00,
2013-03-24 10:59:00,63.1,48.7,30.00,SW,225,6.2,11.6,59,0.00,,FEW,0.00,WUHU21623XXSP,2013-03-24 08:59:00,
2013-03-24 11:04:00,63.3,48.9,30.00,WSW,247,0.0,11.6,59,0.00,,FEW,0.00,WUHU21623XXSP,2013-03-24 09:04:00,
2013-03-24 11:09:00,63.3,48.4,30.00,SSW,202,4.7,11.3,58,0.00,,FEW,0.00,WUHU21623XXSP,2013-03-24 09:09:00,
2013-03-24 11:14:00,63.3,48.4,29.99,West,270,4.4,11.3,58,0.00,,FEW,0.00,WUHU21623XXSP,2013-03-24 09:14:00,
2013-03-24 11:19:00,63.7,48.3,29.99,SW,225,6.6,12.5,57,0.00,,FEW,0.00,WUHU21623XXSP,2013-03-24 09:19:00,
2013-03-24 11:24:00,63.9,48.5,29.99,SW,225,0.0,13.3,57,0.00,,FEW,0.00,WUHU21623XXSP,2013-03-24 09:24:00,
2013-03-24 11:29:00,64.6,49.6,29.99,ENE,67,0.0,13.3,58,0.00,,FEW,0.00,WUHU21623XXSP,2013-03-24 09:29:00,
2013-03-24 11:34:00,64.4,49.4,29.99,SSW,202,0.0,9.8,58,0.00,,FEW,0.00,WUHU21623XXSP,2013-03-24 09:34:00,
2013-03-24 11:39:00,64.8,48.8,29.99,South,180,5.2,11.8,56,0.00,,FEW,0.00,WUHU21623XXSP,2013-03-24 09:39:00,
2013-03-24 11:44:00,64.9,48.9,29.99,WNW,292,0.0,11.8,56,0.00,,FEW,0.00,WUHU21623XXSP,2013-03-24 09:44:00,
2013-03-24 11:49:00,65.3,48.8,29.99,SW,225,6.2,13.8,55,0.00,,FEW,0.00,WUHU21623XXSP,2013-03-24 09:49:00,
2013-03-24 11:54:00,65.5,48.5,29.99,SE,135,0.0,13.8,54,0.00,,FEW,0.00,WUHU21623XXSP,2013-03-24 09:54:00,
2013-03-24 11:59:00,65.7,49.2,29.98,North,0,0.0,13.5,55,0.00,,FEW,0.00,WUHU21623XXSP,2013-03-24 09:59:00,
2013-03-24 12:04:00,66.0,49.5,29.98,SSW,202,3.2,13.5,55,0.00,,FEW,0.00,WUHU21623XXSP,2013-03-24 10:04:00,
2013-03-24 12:09:00,66.2,49.2,29.98,South,180,4.2,13.1,54,0.00,,FEW,0.00,WUHU21623XXSP,2013-03-24 10:09:00,
2013-03-24 12:14:00,66.6,48.5,29.98,SSE,157,4.7,13.1,52,0.00,,FEW,0.00,WUHU21623XXSP,2013-03-24 10:14:00,
2013-03-24 12:19:00,66.6,48.0,29.98,SSW,202,4.4,17.3,51,0.00,,FEW,0.00,WUHU21623XXSP,2013-03-24 10:19:00,
2013-03-24 12:24:00,66.4,47.8,29.99,SSE,157,5.9,17.3,51,0.00,,FEW,0.00,WUHU21623XXSP,2013-03-24 10:24:00,
2013-03-24 12:29:00,66.6,46.9,29.98,South,180,4.4,13.5,49,0.00,,FEW,0.00,WUHU21623XXSP,2013-03-24 10:29:00,
2013-03-24 12:34:00,65.8,46.1,29.98,SSW,202,3.2,15.9,49,0.00,,FEW,0.00,WUHU21623XXSP,2013-03-24 10:34:00,
2013-03-24 12:39:00,66.4,46.7,29.98,South,180,6.4,15.9,49,0.00,,FEW,0.00,WUHU21623XXSP,2013-03-24 10:39:00,
2013-03-24 12:44:00,66.6,47.4,29.99,SSW,202,4.2,13.5,50,0.00,,FEW,0.00,WUHU21623XXSP,2013-03-24 10:44:00,
2013-03-24 12:49:00,66.4,45.0,29.98,SW,225,5.9,18.9,46,0.00,,FEW,0.00,WUHU21623XXSP,2013-03-24 10:49:00,
2013-03-24 12:54:00,65.8,43.8,29.98,SW,225,7.6,18.9,45,0.00,,FEW,0.00,WUHU21623XXSP,2013-03-24 10:54:00,
2013-03-24 12:59:00,65.8,42.6,29.98,SSE,157,2.4,15.0,43,0.00,,FEW,0.00,WUHU21623XXSP,2013-03-24 10:59:00,
2013-03-24 13:04:00,66.0,44.0,29.98,SW,225,3.7,13.5,45,0.00,,FEW,0.00,WUHU21623XXSP,2013-03-24 11:04:00,
2013-03-24 13:09:00,66.2,45.9,29.98,West,270,8.1,14.3,48,0.00,,FEW,0.00,WUHU21623XXSP,2013-03-24 11:09:00,
2013-03-24 13:14:00,65.8,46.7,29.98,ENE,67,0.0,15.5,50,0.00,,FEW,0.00,WUHU21623XXSP,2013-03-24 11:14:00,
2013-03-24 13:19:00,66.2,48.1,29.98,SSE,157,5.6,15.5,52,0.00,,FEW,0.00,WUHU21623XXSP,2013-03-24 11:19:00,
2013-03-24 13:24:00,65.8,48.3,29.98,South,180,6.9,15.5,53,0.00,,FEW,0.00,WUHU21623XXSP,2013-03-24 11:24:00,
2013-03-24 13:29:00,66.4,48.3,29.98,SE,135,5.9,15.5,52,0.00,,FEW,0.00,WUHU21623XXSP,2013-03-24 11:29:00,
2013-03-24 13:34:00,66.4,48.8,29.97,SSE,157,6.2,12.3,53,0.00,,FEW,0.00,WUHU21623XXSP,2013-03-24 11:34:00,
2013-03-24 13:39:00,65.7,48.2,29.97,ESE,112,9.6,13.5,53,0.00,,FEW,0.00,WUHU21623XXSP,2013-03-24 11:39:00,
2013-03-24 13:44:00,64.9,47.4,29.97,SSW,202,12.5,17.9,53,0.00,,FEW,0.00,WUHU21623XXSP,2013-03-24 11:44:00,
2013-03-24 13:49:00,65.7,48.7,29.97,NW,315,0.0,17.9,54,0.00,,FEW,0.00,WUHU21623XXSP,2013-03-24 11:49:00,
2013-03-24 13:54:00,65.7,48.2,29.97,SSE,157,6.6,14.1,53,0.00,,FEW,0.00,WUHU21623XXSP,2013-03-24 11:54:00,
2013-03-24 13:59:00,65.1,48.6,29.97,South,180,14.7,14.7,55,0.00,,FEW,0.00,WUHU21623XXSP,2013-03-24 11:59:00,
2013-03-24 14:04:00,64.0,47.6,29.96,SSW,202,12.5,19.7,55,0.00,,FEW,0.00,WUHU21623XXSP,2013-03-24 12:04:00,
2013-03-24 14:09:00,63.7,48.3,29.96,West,270,2.8,19.7,57,0.00,,FEW,0.00,WUHU21623XXSP,2013-03-24 12:09:00,
2013-03-24 14:14:00,64.0,48.1,29.96,SSW,202,5.2,16.7,56,0.00,,FEW,0.00,WUHU21623XXSP,2013-03-24 12:14:00,
2013-03-24 14:19:00,64.8,49.3,29.96,South,180,1.4,11.6,57,0.00,,FEW,0.00,WUHU21623XXSP,2013-03-24 12:19:00,
2013-03-24 14:24:00,64.8,48.4,29.95,SSW,202,5.9,9.8,55,0.00,,FEW,0.00,WUHU21623XXSP,2013-03-24 12:24:00,
2013-03-24 14:29:00,65.1,47.6,29.95,WSW,247,4.2,14.1,53,0.00,,FEW,0.00,WUHU21623XXSP,2013-03-24 12:29:00,
2013-03-24 14:34:00,64.6,47.7,29.94,SSW,202,4.0,14.1,54,0.00,,FEW,0.00,WUHU21623XXSP,2013-03-24 12:34:00,
2013-03-24 14:39:00,64.0,48.1,29.94,SE,135,1.2,11.6,56,0.00,,FEW,0.00,WUHU21623XXSP,2013-03-24 12:39:00,
2013-03-24 14:44:00,63.9,48.0,29.94,SW,225,2.2,11.3,56,0.00,,FEW,0.00,WUHU21623XXSP,2013-03-24 12:44:00,
2013-03-24 14:49:00,64.6,49.1,29.94,South,180,4.2,11.3,57,0.00,,FEW,0.00,WUHU21623XXSP,2013-03-24 12:49:00,
2013-03-24 14:54:00,64.4,47.5,29.95,SSW,202,6.9,15.7,54,0.00,,FEW,0.00,WUHU21623XXSP,2013-03-24 12:54:00,
2013-03-24 14:59:00,64.6,47.2,29.95,South,180,6.2,21.7,53,0.00,,FEW,0.00,WUHU21623XXSP,2013-03-24 12:59:00,
2013-03-24 15:04:00,65.3,48.3,29.95,WSW,247,6.9,21.7,54,0.00,,FEW,0.00,WUHU21623XXSP,2013-03-24 13:04:00,
2013-03-24 15:09:00,65.1,47.1,29.95,SSW,202,4.7,16.5,52,0.00,,FEW,0.00,WUHU21623XXSP,2013-03-24 13:09:00,
2013-03-24 15:14:00,65.1,47.6,29.95,South,180,11.6,17.3,53,0.00,,FEW,0.00,WUHU21623XXSP,2013-03-24 13:14:00,
2013-03-24 15:19:00,65.3,48.3,29.94,South,180,2.8,17.3,54,0.00,,FEW,0.00,WUHU21623XXSP,2013-03-24 13:19:00,
2013-03-24 15:24:00,65.3,48.3,29.94,South,180,14.5,16.3,54,0.00,,FEW,0.00,WUHU21623XXSP,2013-03-24 13:24:00,
2013-03-24 15:29:00,64.4,47.5,29.94,SSE,157,10.6,15.5,54,0.00,,FEW,0.00,WUHU21623XXSP,2013-03-24 13:29:00,
2013-03-24 15:34:00,64.0,46.6,29.94,South,180,10.8,14.5,53,0.00,,FEW,0.00,WUHU21623XXSP,2013-03-24 13:34:00,
2013-03-24 15:39:00,64.0,46.6,29.94,WSW,247,13.8,16.3,53,0.00,,FEW,0.00,WUHU21623XXSP,2013-03-24 13:39:00,
2013-03-24 15:44:00,64.0,46.6,29.94,SSE,157,4.0,17.5,53,0.00,,FEW,0.00,WUHU21623XXSP,2013-03-24 13:44:00,
2013-03-24 15:49:00,63.5,46.6,29.94,SW,225,4.2,17.5,54,0.00,,FEW,0.00,WUHU21623XXSP,2013-03-24 13:49:00,
2013-03-24 15:54:00,63.7,47.8,29.94,SE,135,0.0,14.5,56,0.00,,FEW,0.00,WUHU21623XXSP,2013-03-24 13:54:00,
2013-03-24 15:59:00,63.9,48.0,29.94,WSW,247,0.0,14.7,56,0.00,,FEW,0.00,WUHU21623XXSP,2013-03-24 13:59:00,
2013-03-24 16:04:00,63.7,46.8,29.94,South,180,16.9,18.9,54,0.00,,FEW,0.00,WUHU21623XXSP,2013-03-24 14:04:00,
2013-03-24 16:09:00,63.3,45.9,29.94,SSW,202,15.9,22.4,53,0.00,,FEW,0.00,WUHU21623XXSP,2013-03-24 14:09:00,
2013-03-24 16:14:00,63.5,46.1,29.95,SSE,157,3.7,22.4,53,0.00,,FEW,0.00,WUHU21623XXSP,2013-03-24 14:14:00,
2013-03-24 16:19:00,63.5,45.1,29.94,SSW,202,12.3,18.5,51,0.00,,FEW,0.00,WUHU21623XXSP,2013-03-24 14:19:00,
2013-03-24 16:24:00,63.9,46.5,29.95,ESE,112,9.1,18.5,53,0.00,,FEW,0.00,WUHU21623XXSP,2013-03-24 14:24:00,
2013-03-24 16:29:00,63.9,46.5,29.94,SE,135,9.8,11.8,53,0.00,,FEW,0.00,WUHU21623XXSP,2013-03-24 14:29:00,
2013-03-24 16:34:00,63.7,45.8,29.94,WSW,247,4.4,15.3,52,0.00,,FEW,0.00,WUHU21623XXSP,2013-03-24 14:34:00,
2013-03-24 16:39:00,63.5,45.6,29.94,SE,135,6.4,15.5,52,0.00,,FEW,0.00,WUHU21623XXSP,2013-03-24 14:39:00,
2013-03-24 16:44:00,64.0,46.6,29.93,WSW,247,0.0,15.5,53,0.00,,FEW,0.00,WUHU21623XXSP,2013-03-24 14:44:00,
2013-03-24 16:49:00,64.0,46.6,29.93,South,180,11.1,14.5,53,0.00,,FEW,0.00,WUHU21623XXSP,2013-03-24 14:49:00,
2013-03-24 16:54:00,63.5,45.6,29.94,SSE,157,5.2,14.7,52,0.00,,FEW,0.00,WUHU21623XXSP,2013-03-24 14:54:00,
2013-03-24 16:59:00,63.5,46.1,29.94,SSE,157,8.1,14.7,53,0.00,,FEW,0.00,WUHU21623XXSP,2013-03-24 14:59:00,
2013-03-24 17:04:00,63.5,46.1,29.94,South,180,4.9,13.3,53,0.00,,FEW,0.00,WUHU21623XXSP,2013-03-24 15:04:00,
2013-03-24 17:09:00,63.3,46.5,29.93,SW,225,3.4,13.3,54,0.00,,FEW,0.00,WUHU21623XXSP,2013-03-24 15:09:00,
2013-03-24 17:14:00,63.5,47.1,29.93,SSE,157,11.1,12.5,55,0.00,,FEW,0.00,WUHU21623XXSP,2013-03-24 15:14:00,
2013-03-24 17:19:00,63.3,47.4,29.93,SSE,157,0.0,11.1,56,0.00,,FEW,0.00,WUHU21623XXSP,2013-03-24 15:19:00,
2013-03-24 17:24:00,63.3,47.4,29.93,South,180,7.4,12.3,56,0.00,,FEW,0.00,WUHU21623XXSP,2013-03-24 15:24:00,
2013-03-24 17:29:00,63.0,47.6,29.93,South,180,2.0,12.3,57,0.00,,FEW,0.00,WUHU21623XXSP,2013-03-24 15:29:00,
2013-03-24 17:34:00,63.0,47.2,29.93,SE,135,3.2,12.1,56,0.00,,FEW,0.00,WUHU21623XXSP,2013-03-24 15:34:00,
2013-03-24 17:39:00,62.8,47.5,29.94,South,180,0.0,12.1,57,0.00,,FEW,0.00,WUHU21623XXSP,2013-03-24 15:39:00,
2013-03-24 17:44:00,62.4,47.6,29.94,SW,225,4.0,12.3,58,0.00,,FEW,0.00,WUHU21623XXSP,2013-03-24 15:44:00,
2013-03-24 17:49:00,62.1,47.3,29.93,SW,225,3.4,12.3,58,0.00,,FEW,0.00,WUHU21623XXSP,2013-03-24 15:49:00,
2013-03-24 17:54:00,61.9,47.5,29.94,SW,225,0.0,10.8,59,0.00,,FEW,0.00,WUHU21623XXSP,2013-03-24 15:54:00,
2013-03-24 17:59:00,61.7,47.4,29.94,South,180,0.0,11.3,59,0.00,,FEW,0.00,WUHU21623XXSP,2013-03-24 15:59:00,
2013-03-24 18:04:00,61.5,47.2,29.94,South,180,3.4,13.3,59,0.00,,FEW,0.00,WUHU21623XXSP,2013-03-24 16:04:00,
2013-03-24 18:09:00,61.2,47.3,29.93,SSW,202,3.4,13.3,60,0.00,,FEW,0.00,WUHU21623XXSP,2013-03-24 16:09:00,
2013-03-24 18:14:00,60.8,47.0,29.93,WSW,247,1.0,12.5,60,0.00,,FEW,0.00,WUHU21623XXSP,2013-03-24 16:14:00,
2013-03-24 18:19:00,60.4,47.0,29.94,SSE,157,3.2,12.3,61,0.00,,FEW,0.00,WUHU21623XXSP,2013-03-24 16:19:00,
2013-03-24 18:24:00,60.3,47.8,29.94,South,180,0.0,11.3,63,0.00,,FEW,0.00,WUHU21623XXSP,2013-03-24 16:24:00,
2013-03-24 18:29:00,60.1,48.0,29.94,SSE,157,0.0,11.3,64,0.00,,FEW,0.00,WUHU21623XXSP,2013-03-24 16:29:00,
2013-03-24 18:34:00,59.9,48.3,29.94,South,180,0.0,8.9,65,0.00,,FEW,0.00,WUHU21623XXSP,2013-03-24 16:34:00,
2013-03-24 18:39:00,59.9,48.7,29.94,SSW,202,4.9,11.8,66,0.00,,FEW,0.00,WUHU21623XXSP,2013-03-24 16:39:00,
2013-03-24 18:44:00,59.7,48.9,29.94,SSE,157,4.4,14.1,67,0.00,,FEW,0.00,WUHU21623XXSP,2013-03-24 16:44:00,
2013-03-24 18:49:00,59.7,48.9,29.94,SW,225,5.6,14.1,67,0.00,,FEW,0.00,WUHU21623XXSP,2013-03-24 16:49:00,
2013-03-24 19:00:00,59.4,48.6,29.94,SSW,202,8.9,8.9,67,0.00,,FEW,0.00,WUHU21623XXSP,2013-03-24 17:00:00,
2013-03-24 19:05:00,59.4,48.6,29.93,SSW,202,3.4,9.1,67,0.00,,FEW,0.00,WUHU21623XXSP,2013-03-24 17:05:00,
2013-03-24 19:10:00,59.4,48.6,29.94,SSE,157,6.2,9.1,67,0.00,,FEW,0.00,WUHU21623XXSP,2013-03-24 17:10:00,
2013-03-24 19:15:00,59.2,48.8,29.93,South,180,0.0,8.4,68,0.00,,FEW,0.00,WUHU21623XXSP,2013-03-24 17:15:00,
2013-03-24 19:20:00,58.8,48.4,29.94,South,180,0.0,4.9,68,0.00,,FEW,0.00,WUHU21623XXSP,2013-03-24 17:20:00,
2013-03-24 19:25:00,59.2,48.0,29.94,SSW,202,0.0,10.3,66,0.00,,FEW,0.00,WUHU21623XXSP,2013-03-24 17:25:00,
2013-03-24 19:30:00,59.2,48.0,29.95,SE,135,2.0,10.3,66,0.00,,FEW,0.00,WUHU21623XXSP,2013-03-24 17:30:00,
2013-03-24 19:35:00,59.2,48.0,29.95,WNW,292,0.0,9.8,66,0.00,,FEW,0.00,WUHU21623XXSP,2013-03-24 17:35:00,
2013-03-24 19:40:00,59.0,47.8,29.95,SSW,202,0.0,9.8,66,0.00,,FEW,0.00,WUHU21623XXSP,2013-03-24 17:40:00,
2013-03-24 19:45:00,59.2,47.6,29.95,SW,225,6.6,12.8,65,0.00,,FEW,0.00,WUHU21623XXSP,2013-03-24 17:45:00,
2013-03-24 19:50:00,59.2,47.6,29.95,WSW,247,4.2,12.8,65,0.00,,FEW,0.00,WUHU21623XXSP,2013-03-24 17:50:00,
2013-03-24 19:55:00,59.0,47.0,29.96,SSW,202,0.0,6.4,64,0.00,,FEW,0.00,WUHU21623XXSP,2013-03-24 17:55:00,
2013-03-24 20:00:00,59.0,47.0,29.96,West,270,4.4,8.1,64,0.00,,FEW,0.00,WUHU21623XXSP,2013-03-24 18:00:00,
2013-03-24 20:05:00,58.6,46.6,29.96,SSE,157,0.0,8.1,64,0.00,,FEW,0.00,WUHU21623XXSP,2013-03-24 18:05:00,
2013-03-24 20:10:00,58.6,47.0,29.96,South,180,0.0,4.4,65,0.00,,FEW,0.00,WUHU21623XXSP,2013-03-24 18:10:00,
2013-03-24 20:15:00,58.6,46.6,29.96,SW,225,0.0,4.0,64,0.00,,FEW,0.00,WUHU21623XXSP,2013-03-24 18:15:00,
2013-03-24 20:20:00,58.6,47.0,29.96,NW,315,0.0,4.9,65,0.00,,FEW,0.00,WUHU21623XXSP,2013-03-24 18:20:00,
2013-03-24 20:25:00,58.5,46.9,29.96,SSW,202,0.0,4.9,65,0.00,,FEW,0.00,WUHU21623XXSP,2013-03-24 18:25:00,
2013-03-24 20:30:00,58.3,46.7,29.96,SSW,202,0.0,1.2,65,0.00,,FEW,0.00,WUHU21623XXSP,2013-03-24 18:30:00,
2013-03-24 20:35:00,58.1,46.5,29.96,North,0,0.0,1.2,65,0.00,,FEW,0.00,WUHU21623XXSP,2013-03-24 18:35:00,
2013-03-24 20:40:00,58.1,46.5,29.96,SSW,202,0.0,2.2,65,0.00,,FEW,0.00,WUHU21623XXSP,2013-03-24 18:40:00,
2013-03-24 20:45:00,58.3,47.1,29.96,SSW,202,0.0,2.2,66,0.00,,FEW,0.00,WUHU21623XXSP,2013-03-24 18:45:00,
2013-03-24 20:50:00,58.3,47.1,29.96,SSW,202,0.0,2.8,66,0.00,,FEW,0.00,WUHU21623XXSP,2013-03-24 18:50:00,
2013-03-24 20:55:00,58.5,47.3,29.97,NW,315,0.0,5.6,66,0.00,,FEW,0.00,WUHU21623XXSP,2013-03-24 18:55:00,
2013-03-24 21:00:00,58.3,47.5,29.97,SW,225,0.0,5.6,67,0.00,,FEW,0.00,WUHU21623XXSP,2013-03-24 19:00:00,
2013-03-24 21:05:00,58.3,47.5,29.96,South,180,0.0,1.8,67,0.00,,FEW,0.00,WUHU21623XXSP,2013-03-24 19:05:00,
2013-03-24 21:10:00,58.5,47.3,29.96,SE,135,0.0,0.0,66,0.00,,FEW,0.00,WUHU21623XXSP,2013-03-24 19:10:00,
2013-03-24 21:15:00,58.5,47.3,29.96,WSW,247,0.0,4.0,66,0.00,,FEW,0.00,WUHU21623XXSP,2013-03-24 19:15:00,
2013-03-24 21:20:00,58.5,47.3,29.96,NW,315,0.0,4.9,66,0.00,,FEW,0.00,WUHU21623XXSP,2013-03-24 19:20:00,
2013-03-24 21:25:00,58.5,47.3,29.96,SW,225,6.4,6.4,66,0.00,,FEW,0.00,WUHU21623XXSP,2013-03-24 19:25:00,
2013-03-24 21:30:00,58.5,47.3,29.96,NW,315,0.0,8.4,66,0.00,,FEW,0.00,WUHU21623XXSP,2013-03-24 19:30:00,
2013-03-24 21:35:00,58.5,47.3,29.96,WSW,247,0.0,8.4,66,0.00,,FEW,0.00,WUHU21623XXSP,2013-03-24 19:35:00,
2013-03-24 21:40:00,58.5,47.3,29.96,SSE,157,0.0,4.0,66,0.00,,FEW,0.00,WUHU21623XXSP,2013-03-24 19:40:00,
2013-03-24 21:45:00,58.5,47.7,29.96,SSW,202,0.0,4.0,67,0.00,,FEW,0.00,WUHU21623XXSP,2013-03-24 19:45:00,
2013-03-24 21:50:00,58.5,47.7,29.97,NNE,22,0.0,4.2,67,0.00,,FEW,0.00,WUHU21623XXSP,2013-03-24 19:50:00,
2013-03-24 21:55:00,58.5,47.7,29.97,SW,225,0.0,4.2,67,0.00,,FEW,0.00,WUHU21623XXSP,2013-03-24 19:55:00,
2013-03-24 22:00:00,58.5,47.7,29.97,SW,225,0.0,0.0,67,0.00,,FEW,0.00,WUHU21623XXSP,2013-03-24 20:00:00,
2013-03-24 22:05:00,58.3,47.5,29.96,South,180,0.0,2.0,67,0.00,,SCT,0.00,WUHU21623XXSP,2013-03-24 20:05:00,
2013-03-24 22:10:00,58.3,47.5,29.97,SE,135,0.0,4.9,67,0.00,,SCT,0.00,WUHU21623XXSP,2013-03-24 20:10:00,
2013-03-24 22:15:00,58.3,47.1,29.97,South,180,4.0,6.2,66,0.00,,SCT,0.00,WUHU21623XXSP,2013-03-24 20:15:00,
2013-03-24 22:20:00,58.3,46.7,29.97,SSW,202,0.0,6.4,65,0.00,,SCT,0.00,WUHU21623XXSP,2013-03-24 20:20:00,
2013-03-24 22:25:00,58.5,46.5,29.96,ESE,112,0.0,6.4,64,0.00,,SCT,0.00,WUHU21623XXSP,2013-03-24 20:25:00,
2013-03-24 22:30:00,58.5,46.1,29.96,SSW,202,0.0,5.9,63,0.00,,SCT,0.00,WUHU21623XXSP,2013-03-24 20:30:00,
2013-03-24 22:35:00,58.3,45.9,29.97,NW,315,0.0,0.0,63,0.00,,SCT,0.00,WUHU21623XXSP,2013-03-24 20:35:00,
2013-03-24 22:40:00,58.5,46.1,29.97,WNW,292,0.0,2.4,63,0.00,,SCT,0.00,WUHU21623XXSP,2013-03-24 20:40:00,
2013-03-24 22:45:00,58.3,46.3,29.97,South,180,0.0,3.4,64,0.00,,SCT,0.00,WUHU21623XXSP,2013-03-24 20:45:00,
2013-03-24 22:50:00,58.5,46.5,29.96,SW,225,0.0,4.4,64,0.00,,SCT,0.00,WUHU21623XXSP,2013-03-24 20:50:00,
2013-03-24 22:55:00,58.3,46.7,29.97,SW,225,1.0,4.4,65,0.00,,SCT,0.00,WUHU21623XXSP,2013-03-24 20:55:00,
2013-03-24 23:00:00,58.5,46.9,29.96,SSW,202,0.0,3.0,65,0.00,,SCT,0.00,WUHU21623XXSP,2013-03-24 21:00:00,
2013-03-24 23:05:00,58.5,47.3,29.96,SW,225,0.0,3.4,66,0.00,,SCT,0.00,WUHU21623XXSP,2013-03-24 21:05:00,
2013-03-24 23:10:00,58.5,47.3,29.96,SW,225,1.8,3.4,66,0.00,,SCT,0.00,WUHU21623XXSP,2013-03-24 21:10:00,
2013-03-24 23:15:00,58.5,47.7,29.96,SW,225,0.0,7.9,67,0.00,,SCT,0.00,WUHU21623XXSP,2013-03-24 21:15:00,
2013-03-24 23:20:00,58.5,48.1,29.96,SSW,202,1.0,7.9,68,0.00,,SCT,0.00,WUHU21623XXSP,2013-03-24 21:20:00,
2013-03-24 23:25:00,58.5,48.5,29.96,SSE,157,0.0,4.4,69,0.00,,SCT,0.00,WUHU21623XXSP,2013-03-24 21:25:00,
2013-03-24 23:30:00,58.5,48.9,29.95,SW,225,0.0,4.0,70,0.00,,SCT,0.00,WUHU21623XXSP,2013-03-24 21:30:00,
2013-03-24 23:35:00,58.3,48.7,29.95,NW,315,0.0,4.0,70,0.00,,SCT,0.00,WUHU21623XXSP,2013-03-24 21:35:00,
2013-03-24 23:40:00,58.3,49.1,29.95,SW,225,0.0,0.0,71,0.00,,SCT,0.00,WUHU21623XXSP,2013-03-24 21:40:00,